sensor_id;sensor_type;location;lat;lon;timestamp;P1;durP1;ratioP1;P2;durP2;ratioP2
40541;SDS011;49288;52.194;5.676;2023-04-09T00:03:05;70.57;;;27.90;;
40541;SDS011;49288;52.194;5.676;2023-04-09T00:08:09;81.85;;;31.52;;
40541;SDS011;49288;52.194;5.676;2023-04-09T00:13:12;76.80;;;29.55;;
40541;SDS011;49288;52.194;5.676;2023-04-09T00:18:21;89.88;;;34.10;;
40541;SDS011;49288;52.194;5.676;2023-04-09T00:23:24;75.30;;;28.40;;
40541;SDS011;49288;52.194;5.676;2023-04-09T00:28:26;80.55;;;29.50;;
40541;SDS011;49288;52.194;5.676;2023-04-09T00:33:48;73.55;;;29.77;;
40541;SDS011;49288;52.194;5.676;2023-04-09T00:38:50;85.03;;;31.88;;
40541;SDS011;49288;52.194;5.676;2023-04-09T00:48:58;81.18;;;30.85;;
40541;SDS011;49288;52.194;5.676;2023-04-09T00:54:23;73.80;;;28.10;;
40541;SDS011;49288;52.194;5.676;2023-04-09T00:59:25;88.35;;;33.40;;
40541;SDS011;49288;52.194;5.676;2023-04-09T01:04:29;72.97;;;27.63;;
40541;SDS011;49288;52.194;5.676;2023-04-09T01:09:38;83.20;;;31.87;;
40541;SDS011;49288;52.194;5.676;2023-04-09T01:14:53;68.38;;;29.33;;
40541;SDS011;49288;52.194;5.676;2023-04-09T01:25:25;77.80;;;30.67;;
40541;SDS011;49288;52.194;5.676;2023-04-09T01:30:47;80.15;;;29.85;;
40541;SDS011;49288;52.194;5.676;2023-04-09T01:35:54;84.70;;;31.92;;
40541;SDS011;49288;52.194;5.676;2023-04-09T01:40:59;86.88;;;31.17;;
40541;SDS011;49288;52.194;5.676;2023-04-09T01:51:06;84.13;;;30.88;;
40541;SDS011;49288;52.194;5.676;2023-04-09T01:56:09;81.30;;;30.35;;
40541;SDS011;49288;52.194;5.676;2023-04-09T02:01:13;79.88;;;29.38;;
40541;SDS011;49288;52.194;5.676;2023-04-09T02:11:28;84.15;;;31.98;;
40541;SDS011;49288;52.194;5.676;2023-04-09T02:16:34;78.93;;;28.67;;
40541;SDS011;49288;52.194;5.676;2023-04-09T02:21:39;81.00;;;30.92;;
40541;SDS011;49288;52.194;5.676;2023-04-09T02:26:42;79.57;;;26.73;;
40541;SDS011;49288;52.194;5.676;2023-04-09T02:31:45;71.88;;;27.13;;
40541;SDS011;49288;52.194;5.676;2023-04-09T02:36:49;81.55;;;30.50;;
40541;SDS011;49288;52.194;5.676;2023-04-09T02:41:52;72.35;;;28.85;;
40541;SDS011;49288;52.194;5.676;2023-04-09T02:46:55;85.20;;;32.88;;
40541;SDS011;49288;52.194;5.676;2023-04-09T02:51:59;73.78;;;29.83;;
40541;SDS011;49288;52.194;5.676;2023-04-09T02:57:02;78.68;;;31.88;;
40541;SDS011;49288;52.194;5.676;2023-04-09T03:02:09;76.90;;;29.98;;
40541;SDS011;49288;52.194;5.676;2023-04-09T03:07:14;74.03;;;29.08;;
40541;SDS011;49288;52.194;5.676;2023-04-09T03:12:17;73.53;;;29.80;;
40541;SDS011;49288;52.194;5.676;2023-04-09T03:17:20;72.15;;;29.75;;
40541;SDS011;49288;52.194;5.676;2023-04-09T03:22:23;84.55;;;31.20;;
40541;SDS011;49288;52.194;5.676;2023-04-09T03:27:27;83.50;;;29.47;;
40541;SDS011;49288;52.194;5.676;2023-04-09T03:32:31;78.90;;;31.80;;
40541;SDS011;49288;52.194;5.676;2023-04-09T03:37:35;78.32;;;32.17;;
40541;SDS011;49288;52.194;5.676;2023-04-09T03:42:44;76.93;;;30.63;;
40541;SDS011;49288;52.194;5.676;2023-04-09T03:47:50;72.28;;;29.83;;
40541;SDS011;49288;52.194;5.676;2023-04-09T03:52:57;70.82;;;29.40;;
40541;SDS011;49288;52.194;5.676;2023-04-09T03:58:02;71.10;;;28.85;;
40541;SDS011;49288;52.194;5.676;2023-04-09T04:03:11;73.63;;;28.52;;
40541;SDS011;49288;52.194;5.676;2023-04-09T04:08:43;65.10;;;28.20;;
40541;SDS011;49288;52.194;5.676;2023-04-09T04:13:48;73.20;;;29.10;;
40541;SDS011;49288;52.194;5.676;2023-04-09T04:18:51;67.25;;;27.70;;
40541;SDS011;49288;52.194;5.676;2023-04-09T04:23:56;66.80;;;28.63;;
40541;SDS011;49288;52.194;5.676;2023-04-09T04:29:02;77.80;;;28.70;;
40541;SDS011;49288;52.194;5.676;2023-04-09T04:34:22;66.57;;;27.40;;
40541;SDS011;49288;52.194;5.676;2023-04-09T04:39:51;66.43;;;27.48;;
40541;SDS011;49288;52.194;5.676;2023-04-09T04:44:55;67.60;;;26.60;;
40541;SDS011;49288;52.194;5.676;2023-04-09T04:50:15;63.05;;;26.15;;
40541;SDS011;49288;52.194;5.676;2023-04-09T04:55:42;69.57;;;27.88;;
40541;SDS011;49288;52.194;5.676;2023-04-09T05:00:48;64.78;;;29.15;;
40541;SDS011;49288;52.194;5.676;2023-04-09T05:05:51;73.38;;;27.73;;
40541;SDS011;49288;52.194;5.676;2023-04-09T05:10:55;71.73;;;29.40;;
40541;SDS011;49288;52.194;5.676;2023-04-09T05:16:05;66.20;;;28.67;;
40541;SDS011;49288;52.194;5.676;2023-04-09T05:21:10;63.10;;;24.30;;
40541;SDS011;49288;52.194;5.676;2023-04-09T05:26:17;70.03;;;29.35;;
40541;SDS011;49288;52.194;5.676;2023-04-09T05:31:29;70.97;;;29.38;;
40541;SDS011;49288;52.194;5.676;2023-04-09T05:36:37;65.07;;;27.52;;
40541;SDS011;49288;52.194;5.676;2023-04-09T05:41:40;67.25;;;27.52;;
40541;SDS011;49288;52.194;5.676;2023-04-09T05:47:04;69.68;;;28.52;;
40541;SDS011;49288;52.194;5.676;2023-04-09T05:52:15;69.88;;;28.58;;
40541;SDS011;49288;52.194;5.676;2023-04-09T05:57:37;59.22;;;24.85;;
40541;SDS011;49288;52.194;5.676;2023-04-09T06:02:40;61.72;;;27.23;;
40541;SDS011;49288;52.194;5.676;2023-04-09T06:07:43;70.70;;;30.02;;
40541;SDS011;49288;52.194;5.676;2023-04-09T06:12:51;68.43;;;28.63;;
40541;SDS011;49288;52.194;5.676;2023-04-09T06:17:54;69.20;;;28.02;;
40541;SDS011;49288;52.194;5.676;2023-04-09T06:23:18;66.03;;;28.15;;
40541;SDS011;49288;52.194;5.676;2023-04-09T06:28:21;50.50;;;22.05;;
40541;SDS011;49288;52.194;5.676;2023-04-09T06:33:24;70.45;;;29.88;;
40541;SDS011;49288;52.194;5.676;2023-04-09T06:38:27;60.80;;;25.90;;
40541;SDS011;49288;52.194;5.676;2023-04-09T06:43:31;61.53;;;25.15;;
40541;SDS011;49288;52.194;5.676;2023-04-09T06:48:39;56.97;;;24.45;;
40541;SDS011;49288;52.194;5.676;2023-04-09T06:53:43;58.33;;;26.20;;
40541;SDS011;49288;52.194;5.676;2023-04-09T06:59:04;53.53;;;23.23;;
40541;SDS011;49288;52.194;5.676;2023-04-09T07:04:08;56.93;;;24.60;;
40541;SDS011;49288;52.194;5.676;2023-04-09T07:09:11;61.83;;;24.98;;
40541;SDS011;49288;52.194;5.676;2023-04-09T07:14:14;55.17;;;25.00;;
40541;SDS011;49288;52.194;5.676;2023-04-09T07:19:17;57.28;;;26.00;;
40541;SDS011;49288;52.194;5.676;2023-04-09T07:24:21;51.63;;;23.67;;
40541;SDS011;49288;52.194;5.676;2023-04-09T07:29:23;53.97;;;25.20;;
40541;SDS011;49288;52.194;5.676;2023-04-09T07:34:27;52.17;;;24.10;;
40541;SDS011;49288;52.194;5.676;2023-04-09T07:39:30;51.65;;;22.45;;
40541;SDS011;49288;52.194;5.676;2023-04-09T07:44:33;60.25;;;25.80;;
40541;SDS011;49288;52.194;5.676;2023-04-09T07:49:37;47.90;;;22.80;;
40541;SDS011;49288;52.194;5.676;2023-04-09T07:54:40;49.55;;;23.60;;
40541;SDS011;49288;52.194;5.676;2023-04-09T07:59:43;56.55;;;25.42;;
40541;SDS011;49288;52.194;5.676;2023-04-09T08:04:45;50.45;;;24.10;;
40541;SDS011;49288;52.194;5.676;2023-04-09T08:09:49;44.90;;;20.80;;
40541;SDS011;49288;52.194;5.676;2023-04-09T08:14:53;52.40;;;24.08;;
40541;SDS011;49288;52.194;5.676;2023-04-09T08:19:55;46.50;;;23.63;;
40541;SDS011;49288;52.194;5.676;2023-04-09T08:24:58;40.35;;;18.65;;
40541;SDS011;49288;52.194;5.676;2023-04-09T08:30:04;45.00;;;22.42;;
40541;SDS011;49288;52.194;5.676;2023-04-09T08:35:08;45.47;;;21.55;;
40541;SDS011;49288;52.194;5.676;2023-04-09T08:40:13;39.53;;;19.92;;
40541;SDS011;49288;52.194;5.676;2023-04-09T08:50:20;36.33;;;18.38;;
40541;SDS011;49288;52.194;5.676;2023-04-09T08:55:24;34.80;;;16.65;;
40541;SDS011;49288;52.194;5.676;2023-04-09T09:00:26;34.78;;;18.13;;
40541;SDS011;49288;52.194;5.676;2023-04-09T09:05:39;37.47;;;18.83;;
40541;SDS011;49288;52.194;5.676;2023-04-09T09:10:43;29.85;;;18.00;;
40541;SDS011;49288;52.194;5.676;2023-04-09T09:15:48;30.60;;;15.65;;
40541;SDS011;49288;52.194;5.676;2023-04-09T09:21:04;27.63;;;14.25;;
40541;SDS011;49288;52.194;5.676;2023-04-09T09:26:14;26.17;;;13.77;;
40541;SDS011;49288;52.194;5.676;2023-04-09T09:31:22;24.67;;;13.13;;
40541;SDS011;49288;52.194;5.676;2023-04-09T09:36:33;25.52;;;13.35;;
40541;SDS011;49288;52.194;5.676;2023-04-09T09:42:05;23.63;;;13.75;;
40541;SDS011;49288;52.194;5.676;2023-04-09T09:47:08;25.13;;;13.38;;
40541;SDS011;49288;52.194;5.676;2023-04-09T09:52:20;21.40;;;12.95;;
40541;SDS011;49288;52.194;5.676;2023-04-09T09:57:27;26.23;;;15.05;;
40541;SDS011;49288;52.194;5.676;2023-04-09T10:02:36;26.35;;;14.88;;
40541;SDS011;49288;52.194;5.676;2023-04-09T10:07:49;29.35;;;16.05;;
40541;SDS011;49288;52.194;5.676;2023-04-09T10:12:52;26.70;;;14.50;;
40541;SDS011;49288;52.194;5.676;2023-04-09T10:17:57;46.55;;;16.33;;
40541;SDS011;49288;52.194;5.676;2023-04-09T10:23:02;23.77;;;14.75;;
40541;SDS011;49288;52.194;5.676;2023-04-09T10:28:14;21.73;;;12.68;;
40541;SDS011;49288;52.194;5.676;2023-04-09T10:33:23;23.38;;;14.07;;
40541;SDS011;49288;52.194;5.676;2023-04-09T10:38:41;21.70;;;13.13;;
40541;SDS011;49288;52.194;5.676;2023-04-09T10:43:47;23.42;;;13.07;;
40541;SDS011;49288;52.194;5.676;2023-04-09T10:49:10;20.10;;;12.23;;
40541;SDS011;49288;52.194;5.676;2023-04-09T10:59:54;22.65;;;13.80;;
40541;SDS011;49288;52.194;5.676;2023-04-09T11:10:28;26.17;;;14.90;;
40541;SDS011;49288;52.194;5.676;2023-04-09T11:15:33;19.55;;;12.73;;
40541;SDS011;49288;52.194;5.676;2023-04-09T11:20:37;20.80;;;13.32;;
40541;SDS011;49288;52.194;5.676;2023-04-09T11:25:39;20.27;;;12.27;;
40541;SDS011;49288;52.194;5.676;2023-04-09T11:30:42;17.13;;;10.37;;
40541;SDS011;49288;52.194;5.676;2023-04-09T11:35:45;19.83;;;12.48;;
40541;SDS011;49288;52.194;5.676;2023-04-09T11:40:48;22.00;;;14.38;;
40541;SDS011;49288;52.194;5.676;2023-04-09T11:45:52;16.73;;;10.95;;
40541;SDS011;49288;52.194;5.676;2023-04-09T11:51:03;20.00;;;11.48;;
40541;SDS011;49288;52.194;5.676;2023-04-09T11:56:06;19.42;;;11.73;;
40541;SDS011;49288;52.194;5.676;2023-04-09T12:01:15;17.13;;;11.30;;
40541;SDS011;49288;52.194;5.676;2023-04-09T12:06:18;21.13;;;13.07;;
40541;SDS011;49288;52.194;5.676;2023-04-09T12:11:26;20.73;;;12.65;;
40541;SDS011;49288;52.194;5.676;2023-04-09T12:16:31;21.15;;;12.75;;
40541;SDS011;49288;52.194;5.676;2023-04-09T12:26:59;16.63;;;11.25;;
40541;SDS011;49288;52.194;5.676;2023-04-09T12:32:02;18.88;;;12.07;;
40541;SDS011;49288;52.194;5.676;2023-04-09T12:37:07;17.83;;;11.73;;
40541;SDS011;49288;52.194;5.676;2023-04-09T12:47:12;18.98;;;12.30;;
40541;SDS011;49288;52.194;5.676;2023-04-09T12:52:15;18.70;;;12.40;;
40541;SDS011;49288;52.194;5.676;2023-04-09T12:57:21;19.90;;;12.75;;
40541;SDS011;49288;52.194;5.676;2023-04-09T13:02:25;19.73;;;11.23;;
40541;SDS011;49288;52.194;5.676;2023-04-09T13:07:28;17.15;;;10.30;;
40541;SDS011;49288;52.194;5.676;2023-04-09T13:12:31;15.27;;;10.13;;
40541;SDS011;49288;52.194;5.676;2023-04-09T13:17:35;15.05;;;9.48;;
40541;SDS011;49288;52.194;5.676;2023-04-09T13:22:37;16.75;;;9.95;;
40541;SDS011;49288;52.194;5.676;2023-04-09T13:27:40;13.63;;;9.32;;
40541;SDS011;49288;52.194;5.676;2023-04-09T13:32:43;16.65;;;11.15;;
40541;SDS011;49288;52.194;5.676;2023-04-09T13:37:46;14.52;;;9.23;;
40541;SDS011;49288;52.194;5.676;2023-04-09T13:42:48;15.25;;;9.85;;
40541;SDS011;49288;52.194;5.676;2023-04-09T13:47:51;13.15;;;9.40;;
40541;SDS011;49288;52.194;5.676;2023-04-09T13:52:53;14.05;;;9.93;;
40541;SDS011;49288;52.194;5.676;2023-04-09T13:57:58;14.88;;;10.02;;
40541;SDS011;49288;52.194;5.676;2023-04-09T14:03:01;17.70;;;11.13;;
40541;SDS011;49288;52.194;5.676;2023-04-09T14:08:07;16.65;;;10.98;;
40541;SDS011;49288;52.194;5.676;2023-04-09T14:13:10;16.08;;;10.30;;
40541;SDS011;49288;52.194;5.676;2023-04-09T14:23:17;17.30;;;12.13;;
40541;SDS011;49288;52.194;5.676;2023-04-09T14:28:20;17.63;;;12.00;;
40541;SDS011;49288;52.194;5.676;2023-04-09T14:33:23;19.60;;;10.98;;
40541;SDS011;49288;52.194;5.676;2023-04-09T14:38:26;20.65;;;12.85;;
40541;SDS011;49288;52.194;5.676;2023-04-09T14:43:30;21.15;;;11.68;;
40541;SDS011;49288;52.194;5.676;2023-04-09T14:48:34;18.58;;;12.43;;
40541;SDS011;49288;52.194;5.676;2023-04-09T14:53:37;30.98;;;12.25;;
40541;SDS011;49288;52.194;5.676;2023-04-09T14:58:40;23.90;;;12.50;;
40541;SDS011;49288;52.194;5.676;2023-04-09T15:03:42;22.15;;;12.30;;
40541;SDS011;49288;52.194;5.676;2023-04-09T15:08:46;19.08;;;13.77;;
40541;SDS011;49288;52.194;5.676;2023-04-09T15:13:50;18.43;;;12.13;;
40541;SDS011;49288;52.194;5.676;2023-04-09T15:18:53;17.40;;;11.93;;
40541;SDS011;49288;52.194;5.676;2023-04-09T15:24:00;19.85;;;11.95;;
40541;SDS011;49288;52.194;5.676;2023-04-09T15:29:05;15.77;;;10.48;;
40541;SDS011;49288;52.194;5.676;2023-04-09T15:34:08;16.58;;;11.32;;
40541;SDS011;49288;52.194;5.676;2023-04-09T15:39:11;15.87;;;10.77;;
40541;SDS011;49288;52.194;5.676;2023-04-09T15:44:14;17.10;;;9.73;;
40541;SDS011;49288;52.194;5.676;2023-04-09T15:49:18;15.80;;;10.80;;
40541;SDS011;49288;52.194;5.676;2023-04-09T15:54:21;16.15;;;11.30;;
40541;SDS011;49288;52.194;5.676;2023-04-09T15:59:24;17.05;;;11.40;;
40541;SDS011;49288;52.194;5.676;2023-04-09T16:04:27;15.27;;;10.43;;
40541;SDS011;49288;52.194;5.676;2023-04-09T16:09:29;24.67;;;11.47;;
40541;SDS011;49288;52.194;5.676;2023-04-09T16:14:51;14.05;;;9.68;;
40541;SDS011;49288;52.194;5.676;2023-04-09T16:19:54;17.30;;;11.65;;
40541;SDS011;49288;52.194;5.676;2023-04-09T16:24:57;18.43;;;11.97;;
40541;SDS011;49288;52.194;5.676;2023-04-09T16:30:00;17.40;;;12.23;;
40541;SDS011;49288;52.194;5.676;2023-04-09T16:35:03;16.38;;;10.98;;
40541;SDS011;49288;52.194;5.676;2023-04-09T16:40:08;18.73;;;12.13;;
40541;SDS011;49288;52.194;5.676;2023-04-09T16:45:11;19.15;;;11.90;;
40541;SDS011;49288;52.194;5.676;2023-04-09T16:50:14;15.82;;;10.93;;
40541;SDS011;49288;52.194;5.676;2023-04-09T16:55:16;17.23;;;11.88;;
40541;SDS011;49288;52.194;5.676;2023-04-09T17:00:28;17.58;;;12.50;;
40541;SDS011;49288;52.194;5.676;2023-04-09T17:05:30;17.58;;;11.07;;
40541;SDS011;49288;52.194;5.676;2023-04-09T17:10:35;16.73;;;11.38;;
40541;SDS011;49288;52.194;5.676;2023-04-09T17:15:37;18.30;;;11.90;;
40541;SDS011;49288;52.194;5.676;2023-04-09T17:20:40;17.40;;;11.07;;
40541;SDS011;49288;52.194;5.676;2023-04-09T17:25:43;14.77;;;9.60;;
40541;SDS011;49288;52.194;5.676;2023-04-09T17:30:45;16.02;;;9.82;;
40541;SDS011;49288;52.194;5.676;2023-04-09T17:35:48;15.55;;;10.30;;
40541;SDS011;49288;52.194;5.676;2023-04-09T17:40:51;15.77;;;10.30;;
40541;SDS011;49288;52.194;5.676;2023-04-09T17:45:54;17.73;;;11.10;;
40541;SDS011;49288;52.194;5.676;2023-04-09T17:50:58;18.95;;;10.88;;
40541;SDS011;49288;52.194;5.676;2023-04-09T17:56:01;18.67;;;11.35;;
40541;SDS011;49288;52.194;5.676;2023-04-09T18:01:05;15.13;;;10.68;;
40541;SDS011;49288;52.194;5.676;2023-04-09T18:06:10;17.95;;;12.27;;
40541;SDS011;49288;52.194;5.676;2023-04-09T18:11:17;20.13;;;10.82;;
40541;SDS011;49288;52.194;5.676;2023-04-09T18:16:19;14.52;;;9.43;;
40541;SDS011;49288;52.194;5.676;2023-04-09T18:21:26;15.70;;;9.50;;
40541;SDS011;49288;52.194;5.676;2023-04-09T18:26:29;20.48;;;9.77;;
40541;SDS011;49288;52.194;5.676;2023-04-09T18:31:34;14.07;;;8.55;;
40541;SDS011;49288;52.194;5.676;2023-04-09T18:36:37;14.45;;;8.27;;
40541;SDS011;49288;52.194;5.676;2023-04-09T18:41:42;14.60;;;8.20;;
40541;SDS011;49288;52.194;5.676;2023-04-09T18:46:45;12.90;;;7.80;;
40541;SDS011;49288;52.194;5.676;2023-04-09T18:51:48;16.08;;;8.05;;
40541;SDS011;49288;52.194;5.676;2023-04-09T18:56:50;13.38;;;8.20;;
40541;SDS011;49288;52.194;5.676;2023-04-09T19:01:53;12.93;;;7.80;;
40541;SDS011;49288;52.194;5.676;2023-04-09T19:06:56;12.38;;;7.75;;
40541;SDS011;49288;52.194;5.676;2023-04-09T19:11:59;17.02;;;7.97;;
40541;SDS011;49288;52.194;5.676;2023-04-09T19:17:22;13.30;;;7.83;;
40541;SDS011;49288;52.194;5.676;2023-04-09T19:22:26;11.13;;;7.20;;
40541;SDS011;49288;52.194;5.676;2023-04-09T19:27:29;13.43;;;7.75;;
40541;SDS011;49288;52.194;5.676;2023-04-09T19:32:32;14.45;;;7.55;;
40541;SDS011;49288;52.194;5.676;2023-04-09T19:37:35;13.45;;;7.22;;
40541;SDS011;49288;52.194;5.676;2023-04-09T19:42:37;12.88;;;7.80;;
40541;SDS011;49288;52.194;5.676;2023-04-09T19:47:41;12.48;;;7.32;;
40541;SDS011;49288;52.194;5.676;2023-04-09T19:52:44;11.32;;;7.20;;
40541;SDS011;49288;52.194;5.676;2023-04-09T19:57:48;12.55;;;7.22;;
40541;SDS011;49288;52.194;5.676;2023-04-09T20:03:11;14.23;;;8.20;;
40541;SDS011;49288;52.194;5.676;2023-04-09T20:08:14;13.73;;;7.72;;
40541;SDS011;49288;52.194;5.676;2023-04-09T20:13:36;14.73;;;8.10;;
40541;SDS011;49288;52.194;5.676;2023-04-09T20:18:42;18.25;;;7.93;;
40541;SDS011;49288;52.194;5.676;2023-04-09T20:23:45;13.77;;;7.93;;
40541;SDS011;49288;52.194;5.676;2023-04-09T20:28:48;18.15;;;7.75;;
40541;SDS011;49288;52.194;5.676;2023-04-09T20:33:52;13.80;;;7.88;;
40541;SDS011;49288;52.194;5.676;2023-04-09T20:38:57;14.82;;;8.45;;
40541;SDS011;49288;52.194;5.676;2023-04-09T20:44:00;16.17;;;8.90;;
40541;SDS011;49288;52.194;5.676;2023-04-09T20:49:03;14.88;;;8.00;;
40541;SDS011;49288;52.194;5.676;2023-04-09T20:54:06;16.63;;;8.32;;
40541;SDS011;49288;52.194;5.676;2023-04-09T20:59:09;16.90;;;9.80;;
40541;SDS011;49288;52.194;5.676;2023-04-09T21:04:12;14.03;;;8.30;;
40541;SDS011;49288;52.194;5.676;2023-04-09T21:09:16;18.30;;;9.77;;
40541;SDS011;49288;52.194;5.676;2023-04-09T21:14:18;15.63;;;8.88;;
40541;SDS011;49288;52.194;5.676;2023-04-09T21:19:21;18.08;;;10.00;;
40541;SDS011;49288;52.194;5.676;2023-04-09T21:24:24;15.68;;;9.40;;
40541;SDS011;49288;52.194;5.676;2023-04-09T21:29:30;19.85;;;10.98;;
40541;SDS011;49288;52.194;5.676;2023-04-09T21:34:37;22.27;;;11.68;;
40541;SDS011;49288;52.194;5.676;2023-04-09T21:39:41;23.40;;;11.38;;
40541;SDS011;49288;52.194;5.676;2023-04-09T21:44:44;18.60;;;10.50;;
40541;SDS011;49288;52.194;5.676;2023-04-09T21:49:48;23.27;;;11.82;;
40541;SDS011;49288;52.194;5.676;2023-04-09T21:54:53;21.98;;;10.98;;
40541;SDS011;49288;52.194;5.676;2023-04-09T21:59:57;22.10;;;12.25;;
40541;SDS011;49288;52.194;5.676;2023-04-09T22:04:59;25.58;;;12.00;;
40541;SDS011;49288;52.194;5.676;2023-04-09T22:10:03;22.63;;;12.18;;
40541;SDS011;49288;52.194;5.676;2023-04-09T22:15:06;23.55;;;12.30;;
40541;SDS011;49288;52.194;5.676;2023-04-09T22:20:10;21.88;;;12.55;;
40541;SDS011;49288;52.194;5.676;2023-04-09T22:25:13;27.38;;;13.15;;
40541;SDS011;49288;52.194;5.676;2023-04-09T22:30:16;26.70;;;14.20;;
40541;SDS011;49288;52.194;5.676;2023-04-09T22:35:20;24.50;;;13.05;;
40541;SDS011;49288;52.194;5.676;2023-04-09T22:40:22;27.90;;;14.20;;
40541;SDS011;49288;52.194;5.676;2023-04-09T22:45:26;32.22;;;14.18;;
40541;SDS011;49288;52.194;5.676;2023-04-09T22:50:31;29.90;;;14.77;;
40541;SDS011;49288;52.194;5.676;2023-04-09T22:55:34;29.73;;;14.73;;
40541;SDS011;49288;52.194;5.676;2023-04-09T23:00:37;29.67;;;15.57;;
40541;SDS011;49288;52.194;5.676;2023-04-09T23:10:45;31.75;;;16.63;;
40541;SDS011;49288;52.194;5.676;2023-04-09T23:15:48;32.65;;;16.98;;
40541;SDS011;49288;52.194;5.676;2023-04-09T23:20:51;35.22;;;18.23;;
40541;SDS011;49288;52.194;5.676;2023-04-09T23:25:54;35.55;;;16.77;;
40541;SDS011;49288;52.194;5.676;2023-04-09T23:30:56;34.28;;;17.00;;
40541;SDS011;49288;52.194;5.676;2023-04-09T23:35:59;33.25;;;17.58;;
40541;SDS011;49288;52.194;5.676;2023-04-09T23:41:02;33.97;;;16.10;;
40541;SDS011;49288;52.194;5.676;2023-04-09T23:46:04;37.80;;;18.42;;
40541;SDS011;49288;52.194;5.676;2023-04-09T23:51:07;35.67;;;16.98;;
40541;SDS011;49288;52.194;5.676;2023-04-09T23:56:16;36.78;;;17.77;;
